createdAt,value
2023-02-03T00:00:40.109Z,101494.31
2023-02-03T00:03:07.860Z,101506.31
2023-02-03T00:05:35.594Z,101504.81
2023-02-03T00:08:04.051Z,101504.72
2023-02-03T00:10:30.464Z,101507.91
2023-02-03T00:12:57.752Z,101501.31
2023-02-03T00:15:24.306Z,101490.56
2023-02-03T00:17:50.806Z,101490.16
2023-02-03T00:20:17.352Z,101484.28
2023-02-03T00:22:43.803Z,101477.69
2023-02-03T00:25:10.465Z,101466.72
2023-02-03T00:27:37.480Z,101478.38
2023-02-03T00:30:04.573Z,101476.38
2023-02-03T00:32:31.384Z,101480.03
2023-02-03T00:34:57.919Z,101455.38
2023-02-03T00:37:24.389Z,101470.13
2023-02-03T00:39:50.788Z,101470.31
2023-02-03T00:42:17.216Z,101461.97
2023-02-03T00:44:43.618Z,101439.91
2023-02-03T00:47:10.028Z,101466.69
2023-02-03T00:49:36.634Z,101446.13
2023-02-03T00:52:03.109Z,101449.44
2023-02-03T00:54:29.510Z,101447.88
2023-02-03T00:56:56.419Z,101438.69
2023-02-03T00:59:22.845Z,101430.59
2023-02-03T01:01:51.000Z,101439.78
2023-02-03T01:04:17.492Z,101421.78
2023-02-03T01:06:43.876Z,101412.72
2023-02-03T01:09:10.430Z,101414.63
2023-02-03T01:11:36.946Z,101411.84
2023-02-03T01:14:03.640Z,101427.50
2023-02-03T01:16:31.366Z,101421.56
2023-02-03T01:18:57.870Z,101399.28
2023-02-03T01:21:26.289Z,101407.03
2023-02-03T01:23:53.848Z,101382.81
2023-02-03T01:26:22.227Z,101392.25
2023-02-03T01:28:59.051Z,101390.22
2023-02-03T01:31:31.837Z,101370.72
2023-02-03T01:33:58.739Z,101380.25
2023-02-03T01:36:27.025Z,101368.75
2023-02-03T01:38:54.170Z,101342.63
2023-02-03T01:41:29.343Z,101357.84
2023-02-03T01:43:58.068Z,101351.56
2023-02-03T01:46:44.611Z,101329.25
2023-02-03T01:49:18.481Z,101330.13
2023-02-03T01:51:46.855Z,101333.63
2023-02-03T01:54:18.863Z,101328.28
2023-02-03T01:56:48.708Z,101330.84
2023-02-03T01:59:19.702Z,101329.91
2023-02-03T02:01:46.781Z,101341.75
2023-02-03T02:04:14.748Z,101320.44
2023-02-03T02:06:41.170Z,101346.94
2023-02-03T02:09:08.399Z,101337.13
2023-02-03T02:11:34.847Z,101333.38
2023-02-03T02:14:02.971Z,101309.31
2023-02-03T02:16:42.538Z,101337.03
2023-02-03T02:19:28.077Z,101341.38
2023-02-03T02:22:20.677Z,101331.44
2023-02-03T02:25:11.291Z,101291.00
2023-02-03T02:28:05.732Z,101306.00
2023-02-03T02:30:53.059Z,101305.03
2023-02-03T02:33:44.106Z,101307.81
2023-02-03T02:36:56.799Z,101315.81
2023-02-03T02:39:27.708Z,101299.94
2023-02-03T02:42:06.324Z,101300.91
2023-02-03T02:44:39.070Z,101298.38
2023-02-03T02:47:16.233Z,101284.13
2023-02-03T02:50:03.260Z,101283.16
2023-02-03T02:52:34.403Z,101292.72
2023-02-03T02:55:24.572Z,101305.66
2023-02-03T02:57:55.448Z,101295.59
2023-02-03T03:00:23.126Z,101283.25
2023-02-03T03:02:50.004Z,101270.31
2023-02-03T03:05:17.954Z,101284.09
2023-02-03T03:08:04.205Z,101253.34
2023-02-03T03:10:32.795Z,101266.88
2023-02-03T03:13:04.388Z,101262.41
2023-02-03T03:15:33.906Z,101257.31
2023-02-03T03:18:03.740Z,101251.88
2023-02-03T03:20:32.860Z,101222.59
2023-02-03T03:23:10.526Z,101245.44
2023-02-03T03:25:43.414Z,101247.13
2023-02-03T03:28:40.856Z,101248.00
2023-02-03T03:31:07.838Z,101241.81
2023-02-03T03:33:34.424Z,101226.19
2023-02-03T03:36:42.949Z,101219.53
2023-02-03T03:39:20.751Z,101215.03
2023-02-03T03:42:00.702Z,101221.22
2023-02-03T03:44:34.023Z,101216.00
2023-02-03T03:47:14.876Z,101219.41
2023-02-03T03:49:45.103Z,101218.66
2023-02-03T03:52:18.656Z,101217.09
2023-02-03T03:54:47.698Z,101212.63
2023-02-03T03:57:24.040Z,101232.25
2023-02-03T03:59:51.196Z,101226.06
2023-02-03T04:02:21.082Z,101223.53
2023-02-03T04:04:48.576Z,101217.72
2023-02-03T04:07:15.460Z,101217.34
2023-02-03T04:09:42.913Z,101202.47
2023-02-03T04:12:19.867Z,101207.53
2023-02-03T04:14:46.248Z,101200.50
2023-02-03T04:17:12.668Z,101188.16
2023-02-03T04:19:39.360Z,101167.75
2023-02-03T04:22:05.915Z,101181.13
2023-02-03T04:24:32.341Z,101157.47
2023-02-03T04:26:58.749Z,101188.28
2023-02-03T04:29:25.140Z,101164.59
2023-02-03T04:31:51.647Z,101148.31
2023-02-03T04:34:18.096Z,101152.13
2023-02-03T04:36:44.481Z,101164.59
2023-02-03T04:39:10.937Z,101166.41
2023-02-03T04:41:37.747Z,101173.66
2023-02-03T04:44:04.285Z,101155.03
2023-02-03T04:46:30.726Z,101173.66
2023-02-03T04:48:57.490Z,101171.97
2023-02-03T04:51:23.980Z,101171.00
2023-02-03T04:53:50.450Z,101182.38
2023-02-03T04:56:16.820Z,101162.03
2023-02-03T04:58:43.307Z,101141.47
2023-02-03T05:01:10.127Z,101155.88
2023-02-03T05:03:36.678Z,101161.19
2023-02-03T05:06:03.497Z,101128.13
2023-02-03T05:08:30.877Z,101147.59
2023-02-03T05:10:57.552Z,101134.44
2023-02-03T05:13:24.101Z,101085.16
2023-02-03T05:15:50.595Z,101117.47
2023-02-03T05:18:17.235Z,101104.16
2023-02-03T05:20:43.636Z,101107.63
2023-02-03T05:23:10.332Z,101097.75
2023-02-03T05:25:36.804Z,101120.25
2023-02-03T05:28:03.433Z,101084.66
2023-02-03T05:30:30.111Z,101100.66
2023-02-03T05:32:56.756Z,101098.66
2023-02-03T05:35:23.163Z,101084.66
2023-02-03T05:37:49.628Z,101091.66
2023-02-03T05:40:34.508Z,101080.56
2023-02-03T05:43:00.958Z,101103.16
2023-02-03T05:45:27.409Z,101056.66
2023-02-03T05:47:53.867Z,101078.13
2023-02-03T05:50:20.278Z,101096.28
2023-02-03T05:52:46.703Z,101083.81
2023-02-03T05:55:13.098Z,101086.19
2023-02-03T05:57:39.515Z,101086.06
2023-02-03T06:00:07.454Z,101075.53
2023-02-03T06:02:34.111Z,101058.78
2023-02-03T06:05:00.497Z,101062.50
2023-02-03T06:07:26.963Z,101070.06
2023-02-03T06:09:53.532Z,101030.19
2023-02-03T06:12:19.950Z,101043.69
2023-02-03T06:14:46.494Z,101053.13
2023-02-03T06:17:12.870Z,101040.63
2023-02-03T06:19:39.320Z,101035.56
2023-02-03T06:22:05.795Z,101031.94
2023-02-03T06:24:32.308Z,101036.28
2023-02-03T06:26:58.678Z,101034.34
2023-02-03T06:29:25.180Z,101030.09
2023-02-03T06:31:51.730Z,101041.22
2023-02-03T06:34:18.184Z,101035.06
2023-02-03T06:36:44.614Z,101034.09
2023-02-03T06:39:10.987Z,101032.53
2023-02-03T06:41:37.679Z,101023.56
2023-02-03T06:44:04.098Z,100980.41
2023-02-03T06:46:30.935Z,101007.56
2023-02-03T06:48:57.435Z,101007.91
2023-02-03T06:51:24.824Z,100995.09
2023-02-03T06:53:51.459Z,100971.94
2023-02-03T06:56:17.888Z,101007.34
2023-02-03T06:58:44.638Z,101019.44
2023-02-03T07:01:11.157Z,100991.47
2023-02-03T07:03:37.751Z,100991.34
2023-02-03T07:06:04.353Z,101022.97
2023-02-03T07:08:30.814Z,101014.13
2023-02-03T07:10:57.272Z,101012.91
2023-02-03T07:13:23.787Z,101000.56
2023-02-03T07:15:50.729Z,100986.50
2023-02-03T07:18:36.040Z,100984.28
2023-02-03T07:21:07.006Z,100993.44
2023-02-03T07:23:33.604Z,100987.53
2023-02-03T07:26:01.420Z,100979.50
2023-02-03T07:28:27.825Z,100998.50
2023-02-03T07:30:54.382Z,100964.06
2023-02-03T07:33:20.949Z,100992.91
2023-02-03T07:35:58.704Z,100993.63
2023-02-03T07:38:27.420Z,100979.69
2023-02-03T07:40:54.199Z,100976.91
2023-02-03T07:43:20.687Z,100986.34
2023-02-03T07:45:47.188Z,100993.94
2023-02-03T07:48:13.852Z,100998.41
2023-02-03T07:50:40.533Z,100973.03
2023-02-03T07:53:09.303Z,100988.28
2023-02-03T07:55:38.086Z,100980.03
2023-02-03T07:58:04.698Z,100996.75
2023-02-03T08:00:31.291Z,100982.00
2023-02-03T08:02:57.763Z,101004.28
2023-02-03T08:05:24.331Z,101021.44
2023-02-03T08:07:50.770Z,101034.22
2023-02-03T08:10:17.931Z,101065.38
2023-02-03T08:12:45.476Z,101066.72
2023-02-03T08:15:13.133Z,101045.34
2023-02-03T08:17:41.271Z,101050.25
2023-02-03T08:20:11.365Z,101061.28
2023-02-03T08:22:37.889Z,101059.59
2023-02-03T08:25:04.742Z,101080.75
2023-02-03T08:27:32.709Z,101077.88
2023-02-03T08:29:59.748Z,101093.41
2023-02-03T08:32:26.533Z,101066.19
2023-02-03T08:34:53.580Z,101089.81
2023-02-03T08:37:24.570Z,101085.75
2023-02-03T08:39:51.723Z,101097.63
2023-02-03T08:42:18.474Z,101100.69
2023-02-03T08:44:44.912Z,101074.69
2023-02-03T08:47:12.146Z,101107.38
2023-02-03T08:49:41.689Z,101111.75
2023-02-03T08:52:11.692Z,101110.91
2023-02-03T08:54:39.019Z,101133.19
2023-02-03T08:57:06.157Z,101103.44
2023-02-03T08:59:36.041Z,101092.69
2023-02-03T09:02:07.021Z,101080.56
2023-02-03T09:04:34.099Z,101065.75
2023-02-03T09:07:02.509Z,101087.66
2023-02-03T09:09:29.107Z,101097.59
2023-02-03T09:12:00.648Z,101063.38
2023-02-03T09:14:27.154Z,101126.75
2023-02-03T09:16:53.681Z,101117.56
2023-02-03T09:19:20.271Z,101115.38
2023-02-03T09:21:48.997Z,101107.88
2023-02-03T09:24:16.467Z,101117.50
2023-02-03T09:26:42.876Z,101122.22
2023-02-03T09:29:09.387Z,101104.72
2023-02-03T09:31:36.449Z,101108.28
2023-02-03T09:34:02.963Z,101108.19
2023-02-03T09:36:29.497Z,101132.59
2023-02-03T09:38:57.823Z,101122.28
2023-02-03T09:42:09.492Z,101141.84
2023-02-03T09:44:47.839Z,101142.09
2023-02-03T09:47:22.935Z,101156.59
2023-02-03T09:50:16.339Z,101169.81
2023-02-03T09:52:44.279Z,101175.72
2023-02-03T09:55:35.769Z,101189.38
2023-02-03T09:58:14.398Z,101150.94
2023-02-03T10:00:51.495Z,101187.63
2023-02-03T10:03:39.507Z,101187.84
2023-02-03T10:06:24.750Z,101171.97
2023-02-03T10:09:24.460Z,101172.50
2023-02-03T10:12:06.332Z,101208.72
2023-02-03T10:14:35.556Z,101214.19
2023-02-03T10:17:30.702Z,101216.34
2023-02-03T10:20:04.022Z,101230.78
2023-02-03T10:22:34.366Z,101228.28
2023-02-03T10:25:07.793Z,101240.13
2023-02-03T10:27:37.485Z,101230.25
2023-02-03T10:30:16.854Z,101210.06
2023-02-03T10:32:43.483Z,101238.97
2023-02-03T10:35:14.111Z,101251.06
2023-02-03T10:37:51.125Z,101252.31
2023-02-03T10:40:19.965Z,101209.88
2023-02-03T10:43:08.020Z,101252.31
2023-02-03T10:45:38.390Z,101215.53
2023-02-03T10:48:09.962Z,101234.56
2023-02-03T10:50:38.526Z,101248.34
2023-02-03T10:53:31.928Z,101271.09
2023-02-03T10:56:04.250Z,101252.19
2023-02-03T10:58:33.341Z,101268.06
2023-02-03T11:01:06.209Z,101297.94
2023-02-03T11:03:33.899Z,101269.91
2023-02-03T11:08:38.445Z,101183.78
2023-02-03T11:11:21.658Z,101224.97
2023-02-03T11:14:10.184Z,101242.19
2023-02-03T11:16:39.508Z,101254.72
2023-02-03T11:19:20.784Z,101284.59
2023-02-03T11:21:52.999Z,101230.88
2023-02-03T11:24:29.277Z,101241.22
2023-02-03T11:27:16.533Z,101288.94
2023-02-03T11:29:49.160Z,101205.91
2023-02-03T11:32:36.537Z,101256.09
2023-02-03T11:35:24.049Z,101246.41
2023-02-03T11:37:55.988Z,101284.19
2023-02-03T11:40:29.076Z,101277.88
2023-02-03T11:42:55.970Z,101273.94
2023-02-03T11:45:45.072Z,101269.44
2023-02-03T11:48:24.471Z,101292.13
2023-02-03T11:51:12.787Z,101285.81
2023-02-03T11:54:05.738Z,101260.38
2023-02-03T11:56:57.867Z,101257.41
2023-02-03T11:59:37.300Z,101270.28
2023-02-03T12:02:18.923Z,101292.25
2023-02-03T12:05:04.591Z,101292.72
2023-02-03T12:07:57.140Z,101286.75
2023-02-03T12:11:05.173Z,101292.72
2023-02-03T12:13:47.051Z,101306.63
2023-02-03T12:16:19.527Z,101308.47
2023-02-03T12:19:13.976Z,101296.63
2023-02-03T12:21:40.617Z,101314.34
2023-02-03T12:24:19.301Z,101309.66
2023-02-03T12:27:22.302Z,101285.28
2023-02-03T12:30:12.275Z,101197.19
2023-02-03T12:32:48.905Z,101284.75
2023-02-03T12:35:41.488Z,101262.84
2023-02-03T12:38:07.868Z,101335.69
2023-02-03T12:40:42.557Z,101332.28
2023-02-03T12:43:50.685Z,101336.91
2023-02-03T12:46:26.255Z,101356.53
2023-02-03T12:48:55.761Z,101352.09
2023-02-03T12:51:35.177Z,101282.88
2023-02-03T12:54:10.591Z,101359.66
2023-02-03T12:56:41.917Z,101277.69
2023-02-03T12:59:25.783Z,101291.69
2023-02-03T13:02:01.487Z,101361.41
2023-02-03T13:04:36.853Z,101355.94
2023-02-03T13:07:25.893Z,101366.97
2023-02-03T13:10:03.658Z,101335.22
2023-02-03T13:12:41.853Z,101262.59
2023-02-03T13:15:39.733Z,101377.59
2023-02-03T13:18:29.729Z,101380.94
2023-02-03T13:20:56.575Z,101315.56
2023-02-03T13:23:24.820Z,101324.91
2023-02-03T13:26:15.845Z,101400.09
2023-02-03T13:28:48.297Z,101401.94
2023-02-03T13:31:33.553Z,101396.00
2023-02-03T13:34:11.042Z,101224.53
2023-02-03T13:37:06.864Z,101401.44
2023-02-03T13:39:53.198Z,101361.63
2023-02-03T13:42:30.796Z,101400.47
2023-02-03T13:45:05.456Z,101362.50
2023-02-03T13:47:32.993Z,101357.78
2023-02-03T13:50:03.419Z,101380.06
2023-02-03T13:52:45.711Z,101412.53
2023-02-03T13:55:28.200Z,101375.09
2023-02-03T13:57:55.111Z,101376.22
2023-02-03T14:00:43.140Z,101433.75
2023-02-03T14:03:24.732Z,101411.19
2023-02-03T14:05:54.714Z,101350.19
2023-02-03T14:08:30.023Z,101430.22
2023-02-03T14:11:33.725Z,101365.13
2023-02-03T14:14:12.153Z,101421.50
2023-02-03T14:16:52.051Z,101418.84
2023-02-03T14:19:29.790Z,101424.56
2023-02-03T14:21:59.278Z,101417.38
2023-02-03T14:24:45.498Z,101426.84
2023-02-03T14:27:23.586Z,101386.06
2023-02-03T14:30:13.264Z,101441.38
2023-02-03T14:33:01.002Z,101371.03
2023-02-03T14:35:33.233Z,101426.63
2023-02-03T14:38:06.972Z,101415.00
2023-02-03T14:40:59.885Z,101416.44
2023-02-03T14:43:58.443Z,101423.72
2023-02-03T14:46:53.903Z,101463.47
2023-02-03T14:49:39.144Z,101444.06
2023-02-03T14:52:17.417Z,101176.84
2023-02-03T14:55:10.779Z,101433.41
2023-02-03T14:57:37.130Z,101443.34
2023-02-03T15:00:07.252Z,101433.66
2023-02-03T15:02:35.141Z,101384.03
2023-02-03T15:05:14.167Z,101435.59
2023-02-03T15:07:45.738Z,101458.63
2023-02-03T15:10:18.791Z,101473.75
2023-02-03T15:12:53.845Z,101422.53
2023-02-03T15:15:23.843Z,101415.03
2023-02-03T15:17:52.603Z,101450.88
2023-02-03T15:20:41.396Z,101514.75
2023-02-03T15:23:19.745Z,101458.97
2023-02-03T15:25:46.492Z,101371.28
2023-02-03T15:28:19.379Z,101468.31
2023-02-03T15:30:47.340Z,101433.91
2023-02-03T15:33:21.790Z,101426.28
2023-02-03T15:35:52.977Z,101494.75
2023-02-03T15:38:26.061Z,101406.19
2023-02-03T15:40:58.880Z,101481.66
2023-02-03T15:43:50.763Z,101466.13
2023-02-03T15:46:24.208Z,101474.75
2023-02-03T15:48:54.895Z,101480.69
2023-02-03T15:51:37.514Z,101495.09
2023-02-03T15:54:12.463Z,101466.13
2023-02-03T15:56:45.694Z,101485.41
2023-02-03T15:59:26.765Z,101485.75
2023-02-03T16:01:54.063Z,101442.41
2023-02-03T16:04:22.239Z,101438.47
2023-02-03T16:06:51.245Z,101463.19
2023-02-03T16:09:44.130Z,101512.78
2023-02-03T16:12:18.756Z,101513.75
2023-02-03T16:14:46.790Z,101531.69
2023-02-03T16:17:28.789Z,101524.53
2023-02-03T16:20:10.705Z,101528.16
2023-02-03T16:22:43.456Z,101424.88
2023-02-03T16:25:23.489Z,101433.34
2023-02-03T16:28:35.494Z,101544.03
2023-02-03T16:31:29.395Z,101513.34
2023-02-03T16:34:14.716Z,101517.72
2023-02-03T16:37:02.290Z,101448.06
2023-02-03T16:39:47.477Z,101539.13
2023-02-03T16:42:36.298Z,101564.09
2023-02-03T16:45:24.232Z,101551.94
2023-02-03T16:48:09.334Z,101559.13
2023-02-03T16:50:53.691Z,101531.72
2023-02-03T16:53:30.495Z,101572.31
2023-02-03T16:56:02.270Z,101557.38
2023-02-03T16:58:28.781Z,101520.16
2023-02-03T17:01:03.258Z,101572.25
2023-02-03T17:03:32.761Z,101526.44
2023-02-03T17:06:04.491Z,101499.97
2023-02-03T17:08:31.249Z,101548.78
2023-02-03T17:11:06.675Z,101599.50
2023-02-03T17:13:33.768Z,101573.97
2023-02-03T17:16:00.609Z,101503.41
2023-02-03T17:18:27.186Z,101565.38
2023-02-03T17:20:55.715Z,101595.44
2023-02-03T17:23:23.485Z,101408.56
2023-02-03T17:25:50.366Z,101537.75
2023-02-03T17:28:17.631Z,101603.56
2023-02-03T17:30:44.282Z,101584.81
2023-02-03T17:33:14.265Z,101610.34
2023-02-03T17:35:45.498Z,101619.81
2023-02-03T17:38:13.362Z,101637.69
2023-02-03T17:54:35.214Z,101691.91
2023-02-03T17:57:02.247Z,101705.78
2023-02-03T17:59:28.812Z,101620.88
2023-02-03T18:01:55.239Z,101673.50
2023-02-03T18:04:21.659Z,101708.66
2023-02-03T18:06:48.176Z,101718.63
2023-02-03T18:09:16.508Z,101697.78
2023-02-03T18:11:43.574Z,101688.31
2023-02-03T18:14:11.234Z,101522.63
2023-02-03T18:16:37.996Z,101704.38
2023-02-03T18:19:07.760Z,101662.56
2023-02-03T18:21:37.736Z,101729.63
2023-02-03T18:24:05.831Z,101681.59
2023-02-03T18:26:36.802Z,101652.66
2023-02-03T18:29:05.687Z,101746.22
2023-02-03T18:31:32.783Z,101699.16
2023-02-03T18:34:03.712Z,101742.28
2023-02-03T18:36:30.193Z,101695.84
2023-02-03T18:38:56.660Z,101666.59
2023-02-03T18:41:25.023Z,101720.88
2023-02-03T18:43:51.562Z,101712.03
2023-02-03T18:46:24.820Z,101654.03
2023-02-03T18:48:51.483Z,101760.00
2023-02-03T18:51:19.849Z,101713.19
2023-02-03T18:53:49.025Z,101783.22
2023-02-03T18:56:18.118Z,101615.19
2023-02-03T18:58:44.750Z,101736.03
2023-02-03T19:01:24.408Z,101791.22
2023-02-03T19:03:51.216Z,101750.38
2023-02-03T19:06:18.565Z,101808.47
2023-02-03T19:08:45.602Z,101771.22
2023-02-03T19:11:13.571Z,101819.28
2023-02-03T19:13:41.216Z,101774.91
2023-02-03T19:16:08.540Z,101842.63
2023-02-03T19:18:36.189Z,101850.53
2023-02-03T19:21:02.661Z,101792.53
2023-02-03T19:23:29.373Z,101857.75
2023-02-03T19:25:56.257Z,101852.78
2023-02-03T19:28:30.462Z,101876.47
2023-02-03T19:31:08.377Z,101691.56
2023-02-03T19:33:35.735Z,101882.00
2023-02-03T19:36:02.722Z,101894.31
2023-02-03T19:38:29.409Z,101829.91
2023-02-03T19:40:56.006Z,101816.63
2023-02-03T19:43:25.173Z,101908.78
2023-02-03T19:45:51.905Z,101935.28
2023-02-03T19:48:18.739Z,101883.16
2023-02-03T19:50:47.882Z,101872.19
2023-02-03T19:53:16.202Z,101939.09
2023-02-03T19:55:43.668Z,101925.56
2023-02-03T19:58:11.554Z,101963.09
2023-02-03T20:00:38.289Z,101955.06
2023-02-03T20:03:05.584Z,101980.19
2023-02-03T20:05:32.237Z,101940.53
2023-02-03T20:07:58.756Z,101842.84
2023-02-03T20:10:28.293Z,101778.69
2023-02-03T20:12:55.353Z,101769.13
2023-02-03T20:15:22.105Z,101786.25
2023-02-03T20:17:49.116Z,101991.53
2023-02-03T20:20:18.593Z,101975.22
2023-02-03T20:22:46.276Z,102000.53
2023-02-03T20:25:12.997Z,102031.56
2023-02-03T20:27:39.894Z,101977.41
2023-02-03T20:30:07.082Z,101795.63
2023-02-03T20:32:34.308Z,101985.97
2023-02-03T20:35:01.062Z,101960.44
2023-02-03T20:37:27.686Z,102022.41
2023-02-03T20:39:54.223Z,102036.44
2023-02-03T20:42:20.652Z,102050.47
2023-02-03T20:44:47.192Z,102060.38
2023-02-03T20:47:17.767Z,102000.56
2023-02-03T20:49:44.633Z,102024.38
2023-02-03T20:52:16.973Z,102099.94
2023-02-03T20:54:44.240Z,102031.84
2023-02-03T20:57:19.009Z,102083.69
2023-02-03T20:59:46.558Z,102113.69
2023-02-03T21:02:32.998Z,102136.28
2023-02-03T21:05:02.225Z,102132.91
2023-02-03T21:07:30.714Z,102138.28
2023-02-03T21:09:59.840Z,102108.63
2023-02-03T21:12:36.021Z,102089.41
2023-02-03T21:15:02.926Z,102107.97
2023-02-03T21:17:35.210Z,102177.72
2023-02-03T21:20:01.772Z,102122.81
2023-02-03T21:22:30.272Z,102098.63
2023-02-03T21:24:58.363Z,102191.34
2023-02-03T21:27:47.013Z,102196.25
2023-02-03T21:30:33.046Z,102196.94
2023-02-03T21:33:01.237Z,102225.47
2023-02-03T21:35:37.608Z,102151.72
2023-02-03T21:38:25.934Z,102244.19
2023-02-03T21:40:52.386Z,102197.25
2023-02-03T21:43:19.541Z,102212.59
2023-02-03T21:45:46.167Z,102151.50
2023-02-03T21:48:26.082Z,102214.47
2023-02-03T21:50:54.254Z,102272.53
2023-02-03T21:53:31.983Z,102284.94
2023-02-03T21:56:15.686Z,102296.69
2023-02-03T21:58:43.922Z,102246.59
2023-02-03T22:01:16.407Z,102329.75
2023-02-03T22:03:47.584Z,102275.97
2023-02-03T22:06:42.793Z,102322.19
2023-02-03T22:09:12.806Z,102266.50
2023-02-03T22:11:39.525Z,102195.06
2023-02-03T22:14:06.401Z,102345.84
2023-02-03T22:16:33.174Z,102335.25
2023-02-03T22:18:59.665Z,102342.59
2023-02-03T22:21:26.547Z,102307.03
2023-02-03T22:23:53.170Z,102342.59
2023-02-03T22:26:20.436Z,102351.69
2023-02-03T22:31:30.779Z,102392.56
2023-02-03T22:33:57.297Z,102380.69
2023-02-03T22:36:23.767Z,102410.47
2023-02-03T22:38:50.398Z,102275.03
2023-02-03T22:41:16.845Z,102348.94
2023-02-03T22:43:43.297Z,102376.81
2023-02-03T22:46:09.843Z,102386.88
2023-02-03T22:48:36.565Z,102330.59
2023-02-03T22:51:03.344Z,102241.06
2023-02-03T22:53:30.126Z,102398.19
2023-02-03T22:55:56.646Z,102421.84
2023-02-03T22:58:23.082Z,102433.22
2023-02-03T23:00:49.581Z,102401.00
2023-02-03T23:03:16.290Z,102465.94
2023-02-03T23:05:43.009Z,102439.66
2023-02-03T23:08:09.890Z,102496.50
2023-02-03T23:10:36.506Z,102523.19
2023-02-03T23:13:03.016Z,102450.91
2023-02-03T23:15:29.683Z,102421.81
2023-02-03T23:17:56.143Z,102477.69
2023-02-03T23:20:23.090Z,102534.31
2023-02-03T23:22:49.591Z,102479.41
2023-02-03T23:25:16.050Z,102495.03
2023-02-03T23:27:42.640Z,102553.66
2023-02-03T23:30:10.312Z,102562.97
2023-02-03T23:32:36.849Z,102473.50
2023-02-03T23:35:21.822Z,102512.94
2023-02-03T23:37:48.278Z,102449.31
2023-02-03T23:40:14.997Z,102583.78
2023-02-03T23:42:41.925Z,102499.53
2023-02-03T23:45:11.659Z,102502.25
2023-02-03T23:47:40.054Z,102609.78
2023-02-03T23:50:09.339Z,102603.03
2023-02-03T23:52:39.045Z,102620.06
2023-02-03T23:55:11.748Z,102589.81
2023-02-03T23:57:38.720Z,102621.16
